sensor_id;sensor_type;location;lat;lon;timestamp;P1;durP1;ratioP1;P2;durP2;ratioP2
8964;SDS011;4517;49.020;12.066;2022-12-07T00:01:17;12.00;;;10.80;;
8964;SDS011;4517;49.020;12.066;2022-12-07T00:03:45;11.50;;;10.27;;
8964;SDS011;4517;49.020;12.066;2022-12-07T00:06:12;11.37;;;10.23;;
8964;SDS011;4517;49.020;12.066;2022-12-07T00:08:40;10.63;;;9.57;;
8964;SDS011;4517;49.020;12.066;2022-12-07T00:11:06;12.90;;;11.10;;
8964;SDS011;4517;49.020;12.066;2022-12-07T00:13:34;11.53;;;10.33;;
8964;SDS011;4517;49.020;12.066;2022-12-07T00:16:04;11.57;;;10.47;;
8964;SDS011;4517;49.020;12.066;2022-12-07T00:18:31;11.73;;;10.57;;
8964;SDS011;4517;49.020;12.066;2022-12-07T00:21:01;11.70;;;10.50;;
8964;SDS011;4517;49.020;12.066;2022-12-07T00:23:32;10.80;;;9.80;;
8964;SDS011;4517;49.020;12.066;2022-12-07T00:26:05;9.87;;;8.87;;
8964;SDS011;4517;49.020;12.066;2022-12-07T00:28:44;11.07;;;9.97;;
8964;SDS011;4517;49.020;12.066;2022-12-07T00:31:11;11.00;;;9.90;;
8964;SDS011;4517;49.020;12.066;2022-12-07T00:33:39;10.20;;;9.23;;
8964;SDS011;4517;49.020;12.066;2022-12-07T00:36:12;11.80;;;10.70;;
8964;SDS011;4517;49.020;12.066;2022-12-07T00:38:39;11.23;;;10.13;;
8964;SDS011;4517;49.020;12.066;2022-12-07T00:41:06;11.53;;;10.33;;
8964;SDS011;4517;49.020;12.066;2022-12-07T00:43:37;10.60;;;9.67;;
8964;SDS011;4517;49.020;12.066;2022-12-07T00:46:02;10.13;;;9.27;;
8964;SDS011;4517;49.020;12.066;2022-12-07T00:48:28;11.43;;;10.40;;
8964;SDS011;4517;49.020;12.066;2022-12-07T00:50:54;11.30;;;10.20;;
8964;SDS011;4517;49.020;12.066;2022-12-07T00:53:20;12.53;;;10.13;;
8964;SDS011;4517;49.020;12.066;2022-12-07T00:55:46;11.00;;;10.00;;
8964;SDS011;4517;49.020;12.066;2022-12-07T00:58:12;11.57;;;10.47;;
8964;SDS011;4517;49.020;12.066;2022-12-07T01:00:38;11.50;;;10.50;;
8964;SDS011;4517;49.020;12.066;2022-12-07T01:03:05;12.73;;;11.53;;
8964;SDS011;4517;49.020;12.066;2022-12-07T01:05:32;11.17;;;10.17;;
8964;SDS011;4517;49.020;12.066;2022-12-07T01:07:58;11.80;;;10.73;;
8964;SDS011;4517;49.020;12.066;2022-12-07T01:10:24;11.87;;;10.70;;
8964;SDS011;4517;49.020;12.066;2022-12-07T01:12:50;10.97;;;9.87;;
8964;SDS011;4517;49.020;12.066;2022-12-07T01:15:15;11.60;;;10.50;;
8964;SDS011;4517;49.020;12.066;2022-12-07T01:17:41;12.37;;;11.07;;
8964;SDS011;4517;49.020;12.066;2022-12-07T01:20:07;12.77;;;11.47;;
8964;SDS011;4517;49.020;12.066;2022-12-07T01:22:36;12.03;;;10.83;;
8964;SDS011;4517;49.020;12.066;2022-12-07T01:25:03;12.50;;;11.13;;
8964;SDS011;4517;49.020;12.066;2022-12-07T01:27:30;11.13;;;10.03;;
8964;SDS011;4517;49.020;12.066;2022-12-07T01:29:57;13.03;;;11.63;;
8964;SDS011;4517;49.020;12.066;2022-12-07T01:32:22;12.50;;;11.27;;
8964;SDS011;4517;49.020;12.066;2022-12-07T01:34:48;11.80;;;10.73;;
8964;SDS011;4517;49.020;12.066;2022-12-07T01:37:13;12.30;;;11.20;;
8964;SDS011;4517;49.020;12.066;2022-12-07T01:39:39;15.60;;;11.80;;
8964;SDS011;4517;49.020;12.066;2022-12-07T01:42:08;11.20;;;10.17;;
8964;SDS011;4517;49.020;12.066;2022-12-07T01:47:41;13.13;;;11.60;;
8964;SDS011;4517;49.020;12.066;2022-12-07T01:50:08;12.23;;;11.00;;
8964;SDS011;4517;49.020;12.066;2022-12-07T01:52:34;12.33;;;11.13;;
8964;SDS011;4517;49.020;12.066;2022-12-07T01:55:03;11.90;;;10.63;;
8964;SDS011;4517;49.020;12.066;2022-12-07T01:57:32;11.63;;;10.53;;
8964;SDS011;4517;49.020;12.066;2022-12-07T02:00:01;13.60;;;11.70;;
8964;SDS011;4517;49.020;12.066;2022-12-07T02:02:30;12.00;;;10.90;;
8964;SDS011;4517;49.020;12.066;2022-12-07T02:05:02;13.30;;;10.97;;
8964;SDS011;4517;49.020;12.066;2022-12-07T02:07:30;12.80;;;11.60;;
8964;SDS011;4517;49.020;12.066;2022-12-07T02:09:57;12.57;;;11.17;;
8964;SDS011;4517;49.020;12.066;2022-12-07T02:12:36;14.67;;;12.53;;
8964;SDS011;4517;49.020;12.066;2022-12-07T02:15:01;13.30;;;12.00;;
8964;SDS011;4517;49.020;12.066;2022-12-07T02:17:29;14.00;;;12.50;;
8964;SDS011;4517;49.020;12.066;2022-12-07T02:22:52;13.33;;;11.73;;
8964;SDS011;4517;49.020;12.066;2022-12-07T02:31:06;12.67;;;11.30;;
8964;SDS011;4517;49.020;12.066;2022-12-07T02:33:40;12.53;;;11.43;;
8964;SDS011;4517;49.020;12.066;2022-12-07T02:36:15;16.67;;;12.03;;
8964;SDS011;4517;49.020;12.066;2022-12-07T02:38:58;12.30;;;11.03;;
8964;SDS011;4517;49.020;12.066;2022-12-07T02:41:33;12.43;;;11.23;;
8964;SDS011;4517;49.020;12.066;2022-12-07T02:44:09;12.33;;;11.13;;
8964;SDS011;4517;49.020;12.066;2022-12-07T02:46:43;13.43;;;12.13;;
8964;SDS011;4517;49.020;12.066;2022-12-07T02:49:14;13.70;;;12.40;;
8964;SDS011;4517;49.020;12.066;2022-12-07T02:51:41;13.47;;;11.60;;
8964;SDS011;4517;49.020;12.066;2022-12-07T02:54:11;11.67;;;10.60;;
8964;SDS011;4517;49.020;12.066;2022-12-07T03:12:43;13.03;;;11.73;;
8964;SDS011;4517;49.020;12.066;2022-12-07T03:15:31;14.40;;;12.13;;
8964;SDS011;4517;49.020;12.066;2022-12-07T03:18:12;13.67;;;11.60;;
8964;SDS011;4517;49.020;12.066;2022-12-07T03:20:40;16.73;;;12.80;;
8964;SDS011;4517;49.020;12.066;2022-12-07T03:23:08;15.03;;;13.00;;
8964;SDS011;4517;49.020;12.066;2022-12-07T03:25:40;18.47;;;14.17;;
8964;SDS011;4517;49.020;12.066;2022-12-07T03:28:10;14.60;;;12.80;;
8964;SDS011;4517;49.020;12.066;2022-12-07T03:30:40;15.03;;;13.40;;
8964;SDS011;4517;49.020;12.066;2022-12-07T03:33:12;15.67;;;12.80;;
8964;SDS011;4517;49.020;12.066;2022-12-07T03:35:52;15.53;;;12.90;;
8964;SDS011;4517;49.020;12.066;2022-12-07T03:38:36;16.73;;;12.50;;
8964;SDS011;4517;49.020;12.066;2022-12-07T03:41:06;16.77;;;13.40;;
8964;SDS011;4517;49.020;12.066;2022-12-07T03:43:36;17.33;;;13.70;;
8964;SDS011;4517;49.020;12.066;2022-12-07T03:46:18;16.20;;;13.20;;
8964;SDS011;4517;49.020;12.066;2022-12-07T03:51:54;14.67;;;12.67;;
8964;SDS011;4517;49.020;12.066;2022-12-07T03:54:29;19.40;;;13.27;;
8964;SDS011;4517;49.020;12.066;2022-12-07T03:56:55;15.10;;;13.10;;
8964;SDS011;4517;49.020;12.066;2022-12-07T03:59:23;16.80;;;13.10;;
8964;SDS011;4517;49.020;12.066;2022-12-07T04:01:53;14.80;;;12.90;;
8964;SDS011;4517;49.020;12.066;2022-12-07T04:04:22;15.17;;;12.83;;
8964;SDS011;4517;49.020;12.066;2022-12-07T04:06:49;15.07;;;13.30;;
8964;SDS011;4517;49.020;12.066;2022-12-07T04:09:15;15.90;;;12.37;;
8964;SDS011;4517;49.020;12.066;2022-12-07T04:11:42;15.20;;;13.60;;
8964;SDS011;4517;49.020;12.066;2022-12-07T04:14:07;15.60;;;12.77;;
8964;SDS011;4517;49.020;12.066;2022-12-07T04:16:49;14.43;;;12.90;;
8964;SDS011;4517;49.020;12.066;2022-12-07T04:19:18;17.00;;;13.90;;
8964;SDS011;4517;49.020;12.066;2022-12-07T04:21:45;21.23;;;13.37;;
8964;SDS011;4517;49.020;12.066;2022-12-07T04:24:11;15.93;;;13.50;;
8964;SDS011;4517;49.020;12.066;2022-12-07T04:26:39;16.70;;;14.03;;
8964;SDS011;4517;49.020;12.066;2022-12-07T04:29:05;15.80;;;14.13;;
8964;SDS011;4517;49.020;12.066;2022-12-07T04:31:30;22.10;;;15.03;;
8964;SDS011;4517;49.020;12.066;2022-12-07T04:33:56;19.40;;;14.20;;
8964;SDS011;4517;49.020;12.066;2022-12-07T04:36:21;19.70;;;13.83;;
8964;SDS011;4517;49.020;12.066;2022-12-07T04:38:47;19.20;;;14.97;;
8964;SDS011;4517;49.020;12.066;2022-12-07T04:41:13;18.93;;;14.70;;
8964;SDS011;4517;49.020;12.066;2022-12-07T04:43:38;18.10;;;13.73;;
8964;SDS011;4517;49.020;12.066;2022-12-07T04:46:04;18.10;;;14.10;;
8964;SDS011;4517;49.020;12.066;2022-12-07T04:48:29;20.93;;;14.10;;
8964;SDS011;4517;49.020;12.066;2022-12-07T04:50:55;20.03;;;13.87;;
8964;SDS011;4517;49.020;12.066;2022-12-07T04:53:21;21.50;;;13.90;;
8964;SDS011;4517;49.020;12.066;2022-12-07T04:55:47;17.13;;;13.60;;
8964;SDS011;4517;49.020;12.066;2022-12-07T04:58:13;19.33;;;15.10;;
8964;SDS011;4517;49.020;12.066;2022-12-07T05:00:39;19.57;;;13.80;;
8964;SDS011;4517;49.020;12.066;2022-12-07T05:03:04;19.10;;;14.23;;
8964;SDS011;4517;49.020;12.066;2022-12-07T05:05:30;16.27;;;13.47;;
8964;SDS011;4517;49.020;12.066;2022-12-07T05:07:56;21.33;;;14.80;;
8964;SDS011;4517;49.020;12.066;2022-12-07T05:10:21;18.17;;;14.60;;
8964;SDS011;4517;49.020;12.066;2022-12-07T05:12:47;17.83;;;13.57;;
8964;SDS011;4517;49.020;12.066;2022-12-07T05:15:13;22.60;;;15.90;;
8964;SDS011;4517;49.020;12.066;2022-12-07T05:17:39;17.73;;;14.13;;
8964;SDS011;4517;49.020;12.066;2022-12-07T05:20:06;22.10;;;14.70;;
8964;SDS011;4517;49.020;12.066;2022-12-07T05:22:32;18.90;;;15.07;;
8964;SDS011;4517;49.020;12.066;2022-12-07T05:24:57;18.03;;;14.57;;
8964;SDS011;4517;49.020;12.066;2022-12-07T05:27:23;20.07;;;15.50;;
8964;SDS011;4517;49.020;12.066;2022-12-07T05:29:51;23.67;;;14.70;;
8964;SDS011;4517;49.020;12.066;2022-12-07T05:32:17;20.40;;;15.50;;
8964;SDS011;4517;49.020;12.066;2022-12-07T05:34:43;21.17;;;15.33;;
8964;SDS011;4517;49.020;12.066;2022-12-07T05:37:08;21.83;;;15.83;;
8964;SDS011;4517;49.020;12.066;2022-12-07T05:39:34;21.57;;;16.03;;
8964;SDS011;4517;49.020;12.066;2022-12-07T05:41:59;26.40;;;16.50;;
8964;SDS011;4517;49.020;12.066;2022-12-07T05:44:37;18.80;;;14.07;;
8964;SDS011;4517;49.020;12.066;2022-12-07T05:47:03;23.10;;;15.33;;
8964;SDS011;4517;49.020;12.066;2022-12-07T05:49:29;27.20;;;16.37;;
8964;SDS011;4517;49.020;12.066;2022-12-07T05:51:54;23.90;;;15.40;;
8964;SDS011;4517;49.020;12.066;2022-12-07T05:54:20;20.87;;;14.60;;
8964;SDS011;4517;49.020;12.066;2022-12-07T05:56:46;22.83;;;14.60;;
8964;SDS011;4517;49.020;12.066;2022-12-07T05:59:11;24.67;;;14.67;;
8964;SDS011;4517;49.020;12.066;2022-12-07T06:01:50;20.70;;;15.10;;
8964;SDS011;4517;49.020;12.066;2022-12-07T06:04:17;23.70;;;15.17;;
8964;SDS011;4517;49.020;12.066;2022-12-07T06:06:43;22.23;;;14.40;;
8964;SDS011;4517;49.020;12.066;2022-12-07T06:09:09;22.53;;;15.40;;
8964;SDS011;4517;49.020;12.066;2022-12-07T06:11:35;22.70;;;14.57;;
8964;SDS011;4517;49.020;12.066;2022-12-07T06:14:19;21.90;;;14.70;;
8964;SDS011;4517;49.020;12.066;2022-12-07T06:16:45;20.67;;;14.73;;
8964;SDS011;4517;49.020;12.066;2022-12-07T06:19:11;27.00;;;15.20;;
8964;SDS011;4517;49.020;12.066;2022-12-07T06:21:36;23.50;;;14.83;;
8964;SDS011;4517;49.020;12.066;2022-12-07T06:24:02;23.60;;;15.60;;
8964;SDS011;4517;49.020;12.066;2022-12-07T06:26:28;21.00;;;15.07;;
8964;SDS011;4517;49.020;12.066;2022-12-07T06:28:53;20.80;;;14.77;;
8964;SDS011;4517;49.020;12.066;2022-12-07T06:31:19;26.47;;;16.63;;
8964;SDS011;4517;49.020;12.066;2022-12-07T06:33:44;26.63;;;16.23;;
8964;SDS011;4517;49.020;12.066;2022-12-07T06:36:10;24.63;;;16.67;;
8964;SDS011;4517;49.020;12.066;2022-12-07T06:38:35;25.60;;;15.37;;
8964;SDS011;4517;49.020;12.066;2022-12-07T06:41:01;24.90;;;15.63;;
8964;SDS011;4517;49.020;12.066;2022-12-07T06:43:27;27.17;;;16.50;;
8964;SDS011;4517;49.020;12.066;2022-12-07T06:45:52;23.60;;;16.03;;
8964;SDS011;4517;49.020;12.066;2022-12-07T06:48:18;26.47;;;17.00;;
8964;SDS011;4517;49.020;12.066;2022-12-07T06:50:44;20.53;;;16.07;;
8964;SDS011;4517;49.020;12.066;2022-12-07T06:53:10;26.27;;;16.90;;
8964;SDS011;4517;49.020;12.066;2022-12-07T06:55:36;30.93;;;17.50;;
8964;SDS011;4517;49.020;12.066;2022-12-07T06:58:02;26.93;;;16.80;;
8964;SDS011;4517;49.020;12.066;2022-12-07T07:00:28;31.83;;;18.70;;
8964;SDS011;4517;49.020;12.066;2022-12-07T07:02:53;29.30;;;18.13;;
8964;SDS011;4517;49.020;12.066;2022-12-07T07:05:19;33.57;;;21.20;;
8964;SDS011;4517;49.020;12.066;2022-12-07T07:07:47;26.47;;;16.90;;
8964;SDS011;4517;49.020;12.066;2022-12-07T07:10:13;29.60;;;17.77;;
8964;SDS011;4517;49.020;12.066;2022-12-07T07:12:39;32.40;;;18.10;;
8964;SDS011;4517;49.020;12.066;2022-12-07T07:15:04;30.33;;;16.87;;
8964;SDS011;4517;49.020;12.066;2022-12-07T07:17:30;26.60;;;17.10;;
8964;SDS011;4517;49.020;12.066;2022-12-07T07:19:56;27.40;;;16.27;;
8964;SDS011;4517;49.020;12.066;2022-12-07T07:22:21;28.07;;;17.07;;
8964;SDS011;4517;49.020;12.066;2022-12-07T07:24:47;31.47;;;17.60;;
8964;SDS011;4517;49.020;12.066;2022-12-07T07:27:12;29.87;;;17.73;;
8964;SDS011;4517;49.020;12.066;2022-12-07T07:29:38;34.57;;;18.13;;
8964;SDS011;4517;49.020;12.066;2022-12-07T07:32:04;31.63;;;17.60;;
8964;SDS011;4517;49.020;12.066;2022-12-07T07:34:29;27.80;;;17.23;;
8964;SDS011;4517;49.020;12.066;2022-12-07T07:36:55;28.70;;;17.30;;
8964;SDS011;4517;49.020;12.066;2022-12-07T07:39:20;33.93;;;18.83;;
8964;SDS011;4517;49.020;12.066;2022-12-07T07:41:46;34.37;;;18.37;;
8964;SDS011;4517;49.020;12.066;2022-12-07T07:44:13;33.60;;;18.87;;
8964;SDS011;4517;49.020;12.066;2022-12-07T07:46:38;29.60;;;20.33;;
8964;SDS011;4517;49.020;12.066;2022-12-07T07:49:04;33.33;;;17.67;;
8964;SDS011;4517;49.020;12.066;2022-12-07T07:51:29;31.30;;;18.23;;
8964;SDS011;4517;49.020;12.066;2022-12-07T07:53:55;30.30;;;18.73;;
8964;SDS011;4517;49.020;12.066;2022-12-07T07:56:21;25.97;;;16.33;;
8964;SDS011;4517;49.020;12.066;2022-12-07T07:58:46;30.87;;;18.60;;
8964;SDS011;4517;49.020;12.066;2022-12-07T08:01:12;29.60;;;21.60;;
8964;SDS011;4517;49.020;12.066;2022-12-07T08:03:38;27.90;;;16.10;;
8964;SDS011;4517;49.020;12.066;2022-12-07T08:06:04;31.20;;;17.43;;
8964;SDS011;4517;49.020;12.066;2022-12-07T08:08:30;29.10;;;16.93;;
8964;SDS011;4517;49.020;12.066;2022-12-07T08:10:56;30.50;;;17.97;;
8964;SDS011;4517;49.020;12.066;2022-12-07T08:13:27;22.50;;;16.47;;
8964;SDS011;4517;49.020;12.066;2022-12-07T08:15:53;23.97;;;16.10;;
8964;SDS011;4517;49.020;12.066;2022-12-07T08:18:18;24.77;;;17.13;;
8964;SDS011;4517;49.020;12.066;2022-12-07T08:20:44;23.83;;;16.43;;
8964;SDS011;4517;49.020;12.066;2022-12-07T08:23:09;27.93;;;16.17;;
8964;SDS011;4517;49.020;12.066;2022-12-07T08:25:36;26.00;;;14.77;;
8964;SDS011;4517;49.020;12.066;2022-12-07T08:28:01;23.13;;;16.40;;
8964;SDS011;4517;49.020;12.066;2022-12-07T08:30:28;33.73;;;15.30;;
8964;SDS011;4517;49.020;12.066;2022-12-07T08:32:54;20.53;;;15.23;;
8964;SDS011;4517;49.020;12.066;2022-12-07T08:35:20;21.07;;;15.40;;
8964;SDS011;4517;49.020;12.066;2022-12-07T08:37:46;21.53;;;15.57;;
8964;SDS011;4517;49.020;12.066;2022-12-07T08:40:12;19.53;;;15.80;;
8964;SDS011;4517;49.020;12.066;2022-12-07T08:42:50;24.03;;;16.10;;
8964;SDS011;4517;49.020;12.066;2022-12-07T08:45:16;23.60;;;14.83;;
8964;SDS011;4517;49.020;12.066;2022-12-07T08:47:45;23.10;;;15.20;;
8964;SDS011;4517;49.020;12.066;2022-12-07T08:50:21;20.40;;;14.50;;
8964;SDS011;4517;49.020;12.066;2022-12-07T08:52:50;22.30;;;15.63;;
8964;SDS011;4517;49.020;12.066;2022-12-07T08:55:20;25.67;;;16.20;;
8964;SDS011;4517;49.020;12.066;2022-12-07T08:57:46;19.93;;;15.33;;
8964;SDS011;4517;49.020;12.066;2022-12-07T09:00:12;19.60;;;14.10;;
8964;SDS011;4517;49.020;12.066;2022-12-07T09:02:38;18.97;;;15.00;;
8964;SDS011;4517;49.020;12.066;2022-12-07T09:05:04;19.80;;;14.37;;
8964;SDS011;4517;49.020;12.066;2022-12-07T09:07:30;23.60;;;14.03;;
8964;SDS011;4517;49.020;12.066;2022-12-07T09:09:58;19.40;;;13.60;;
8964;SDS011;4517;49.020;12.066;2022-12-07T09:12:23;20.73;;;15.00;;
8964;SDS011;4517;49.020;12.066;2022-12-07T09:14:49;19.73;;;14.33;;
8964;SDS011;4517;49.020;12.066;2022-12-07T09:17:14;22.07;;;13.63;;
8964;SDS011;4517;49.020;12.066;2022-12-07T09:19:40;17.33;;;14.10;;
8964;SDS011;4517;49.020;12.066;2022-12-07T09:22:07;23.87;;;15.07;;
8964;SDS011;4517;49.020;12.066;2022-12-07T09:24:33;20.00;;;13.87;;
8964;SDS011;4517;49.020;12.066;2022-12-07T09:26:58;18.73;;;14.50;;
8964;SDS011;4517;49.020;12.066;2022-12-07T09:29:24;19.57;;;15.57;;
8964;SDS011;4517;49.020;12.066;2022-12-07T09:31:50;19.80;;;14.10;;
8964;SDS011;4517;49.020;12.066;2022-12-07T09:34:17;18.57;;;14.13;;
8964;SDS011;4517;49.020;12.066;2022-12-07T09:36:42;20.10;;;13.40;;
8964;SDS011;4517;49.020;12.066;2022-12-07T09:39:08;19.30;;;13.83;;
8964;SDS011;4517;49.020;12.066;2022-12-07T09:41:36;17.27;;;13.10;;
8964;SDS011;4517;49.020;12.066;2022-12-07T09:44:11;22.13;;;15.40;;
8964;SDS011;4517;49.020;12.066;2022-12-07T09:46:40;20.33;;;15.03;;
8964;SDS011;4517;49.020;12.066;2022-12-07T09:49:09;21.00;;;14.20;;
8964;SDS011;4517;49.020;12.066;2022-12-07T09:51:38;18.73;;;14.50;;
8964;SDS011;4517;49.020;12.066;2022-12-07T09:54:03;19.77;;;14.80;;
8964;SDS011;4517;49.020;12.066;2022-12-07T09:56:29;23.20;;;15.67;;
8964;SDS011;4517;49.020;12.066;2022-12-07T09:58:59;19.27;;;14.60;;
8964;SDS011;4517;49.020;12.066;2022-12-07T10:01:29;17.67;;;15.30;;
8964;SDS011;4517;49.020;12.066;2022-12-07T10:06:46;29.03;;;14.37;;
8964;SDS011;4517;49.020;12.066;2022-12-07T10:09:13;25.10;;;15.00;;
8964;SDS011;4517;49.020;12.066;2022-12-07T10:14:35;22.50;;;14.50;;
8964;SDS011;4517;49.020;12.066;2022-12-07T10:17:02;19.00;;;14.83;;
8964;SDS011;4517;49.020;12.066;2022-12-07T10:19:48;20.37;;;16.63;;
8964;SDS011;4517;49.020;12.066;2022-12-07T10:22:15;20.73;;;15.20;;
8964;SDS011;4517;49.020;12.066;2022-12-07T10:24:41;18.30;;;14.07;;
8964;SDS011;4517;49.020;12.066;2022-12-07T10:27:17;16.67;;;13.30;;
8964;SDS011;4517;49.020;12.066;2022-12-07T10:29:51;16.97;;;12.50;;
8964;SDS011;4517;49.020;12.066;2022-12-07T10:34:43;16.10;;;13.20;;
8964;SDS011;4517;49.020;12.066;2022-12-07T10:39:45;24.00;;;15.53;;
8964;SDS011;4517;49.020;12.066;2022-12-07T10:42:17;19.33;;;13.37;;
8964;SDS011;4517;49.020;12.066;2022-12-07T10:44:48;16.90;;;13.50;;
8964;SDS011;4517;49.020;12.066;2022-12-07T10:57:53;13.83;;;11.60;;
8964;SDS011;4517;49.020;12.066;2022-12-07T11:06:45;17.00;;;11.63;;
8964;SDS011;4517;49.020;12.066;2022-12-07T11:09:25;13.30;;;11.30;;
8964;SDS011;4517;49.020;12.066;2022-12-07T11:17:35;12.30;;;11.00;;
8964;SDS011;4517;49.020;12.066;2022-12-07T11:23:20;17.70;;;11.23;;
8964;SDS011;4517;49.020;12.066;2022-12-07T11:34:15;17.70;;;15.70;;
8964;SDS011;4517;49.020;12.066;2022-12-07T11:37:01;12.10;;;10.80;;
8964;SDS011;4517;49.020;12.066;2022-12-07T11:39:33;13.83;;;10.70;;
8964;SDS011;4517;49.020;12.066;2022-12-07T11:42:05;13.17;;;10.80;;
8964;SDS011;4517;49.020;12.066;2022-12-07T11:47:34;12.13;;;10.87;;
8964;SDS011;4517;49.020;12.066;2022-12-07T11:53:00;11.10;;;10.00;;
8964;SDS011;4517;49.020;12.066;2022-12-07T11:55:37;12.20;;;10.13;;
8964;SDS011;4517;49.020;12.066;2022-12-07T11:58:18;13.40;;;10.03;;
8964;SDS011;4517;49.020;12.066;2022-12-07T12:03:45;11.97;;;10.77;;
8964;SDS011;4517;49.020;12.066;2022-12-07T12:06:12;15.03;;;10.40;;
8964;SDS011;4517;49.020;12.066;2022-12-07T12:08:39;10.80;;;9.70;;
8964;SDS011;4517;49.020;12.066;2022-12-07T12:17:15;13.43;;;10.40;;
8964;SDS011;4517;49.020;12.066;2022-12-07T12:22:45;14.73;;;11.20;;
8964;SDS011;4517;49.020;12.066;2022-12-07T12:25:21;12.13;;;11.00;;
8964;SDS011;4517;49.020;12.066;2022-12-07T12:27:54;12.63;;;11.33;;
8964;SDS011;4517;49.020;12.066;2022-12-07T12:30:36;14.17;;;11.67;;
8964;SDS011;4517;49.020;12.066;2022-12-07T12:33:13;14.93;;;11.63;;
8964;SDS011;4517;49.020;12.066;2022-12-07T12:46:46;14.67;;;11.93;;
8964;SDS011;4517;49.020;12.066;2022-12-07T12:51:50;20.40;;;12.47;;
8964;SDS011;4517;49.020;12.066;2022-12-07T12:59:41;12.33;;;11.03;;
8964;SDS011;4517;49.020;12.066;2022-12-07T13:02:22;14.37;;;11.67;;
8964;SDS011;4517;49.020;12.066;2022-12-07T13:04:59;14.03;;;10.40;;
8964;SDS011;4517;49.020;12.066;2022-12-07T13:15:42;12.77;;;10.13;;
8964;SDS011;4517;49.020;12.066;2022-12-07T13:23:27;15.73;;;10.70;;
8964;SDS011;4517;49.020;12.066;2022-12-07T13:29:10;22.03;;;11.10;;
8964;SDS011;4517;49.020;12.066;2022-12-07T13:34:30;12.93;;;10.77;;
8964;SDS011;4517;49.020;12.066;2022-12-07T13:39:51;16.90;;;10.33;;
8964;SDS011;4517;49.020;12.066;2022-12-07T13:42:30;14.30;;;10.67;;
8964;SDS011;4517;49.020;12.066;2022-12-07T13:44:58;13.60;;;10.10;;
8964;SDS011;4517;49.020;12.066;2022-12-07T13:47:32;14.23;;;10.97;;
8964;SDS011;4517;49.020;12.066;2022-12-07T13:50:01;17.20;;;10.87;;
8964;SDS011;4517;49.020;12.066;2022-12-07T13:52:47;12.83;;;10.57;;
8964;SDS011;4517;49.020;12.066;2022-12-07T13:55:14;13.57;;;10.50;;
8964;SDS011;4517;49.020;12.066;2022-12-07T13:57:41;11.57;;;10.37;;
8964;SDS011;4517;49.020;12.066;2022-12-07T14:00:15;11.50;;;10.40;;
8964;SDS011;4517;49.020;12.066;2022-12-07T14:02:56;12.27;;;11.07;;
8964;SDS011;4517;49.020;12.066;2022-12-07T14:05:30;19.23;;;12.10;;
8964;SDS011;4517;49.020;12.066;2022-12-07T14:07:58;11.63;;;10.27;;
8964;SDS011;4517;49.020;12.066;2022-12-07T14:10:25;15.10;;;11.10;;
8964;SDS011;4517;49.020;12.066;2022-12-07T14:16:03;13.03;;;9.93;;
8964;SDS011;4517;49.020;12.066;2022-12-07T14:18:52;14.40;;;10.43;;
8964;SDS011;4517;49.020;12.066;2022-12-07T14:21:20;16.17;;;11.77;;
8964;SDS011;4517;49.020;12.066;2022-12-07T14:26:37;11.20;;;9.97;;
8964;SDS011;4517;49.020;12.066;2022-12-07T14:31:56;16.47;;;10.77;;
8964;SDS011;4517;49.020;12.066;2022-12-07T14:34:23;25.00;;;10.87;;
8964;SDS011;4517;49.020;12.066;2022-12-07T14:36:49;13.33;;;10.57;;
8964;SDS011;4517;49.020;12.066;2022-12-07T14:39:14;11.13;;;9.93;;
8964;SDS011;4517;49.020;12.066;2022-12-07T14:41:41;12.27;;;10.43;;
8964;SDS011;4517;49.020;12.066;2022-12-07T14:44:16;11.70;;;9.60;;
8964;SDS011;4517;49.020;12.066;2022-12-07T14:46:46;14.67;;;10.87;;
8964;SDS011;4517;49.020;12.066;2022-12-07T14:49:16;14.97;;;11.10;;
8964;SDS011;4517;49.020;12.066;2022-12-07T14:51:42;14.33;;;10.53;;
8964;SDS011;4517;49.020;12.066;2022-12-07T14:54:13;13.73;;;10.20;;
8964;SDS011;4517;49.020;12.066;2022-12-07T14:56:43;14.73;;;13.40;;
8964;SDS011;4517;49.020;12.066;2022-12-07T14:59:10;13.47;;;10.40;;
8964;SDS011;4517;49.020;12.066;2022-12-07T15:01:36;11.77;;;10.60;;
8964;SDS011;4517;49.020;12.066;2022-12-07T15:04:02;11.03;;;10.00;;
8964;SDS011;4517;49.020;12.066;2022-12-07T15:06:28;13.50;;;9.83;;
8964;SDS011;4517;49.020;12.066;2022-12-07T15:08:53;14.03;;;10.93;;
8964;SDS011;4517;49.020;12.066;2022-12-07T15:11:20;11.90;;;9.80;;
8964;SDS011;4517;49.020;12.066;2022-12-07T15:13:45;10.87;;;9.97;;
8964;SDS011;4517;49.020;12.066;2022-12-07T15:16:30;13.37;;;11.17;;
8964;SDS011;4517;49.020;12.066;2022-12-07T15:18:56;13.50;;;12.10;;
8964;SDS011;4517;49.020;12.066;2022-12-07T15:21:21;13.40;;;12.00;;
8964;SDS011;4517;49.020;12.066;2022-12-07T15:23:47;13.60;;;11.40;;
8964;SDS011;4517;49.020;12.066;2022-12-07T15:26:12;21.23;;;11.60;;
8964;SDS011;4517;49.020;12.066;2022-12-07T15:28:39;18.63;;;13.47;;
8964;SDS011;4517;49.020;12.066;2022-12-07T15:31:10;13.70;;;10.73;;
8964;SDS011;4517;49.020;12.066;2022-12-07T15:33:37;13.80;;;11.10;;
8964;SDS011;4517;49.020;12.066;2022-12-07T15:36:03;12.43;;;10.33;;
8964;SDS011;4517;49.020;12.066;2022-12-07T15:38:28;14.83;;;11.80;;
8964;SDS011;4517;49.020;12.066;2022-12-07T15:40:55;12.50;;;10.90;;
8964;SDS011;4517;49.020;12.066;2022-12-07T15:43:21;12.63;;;10.80;;
8964;SDS011;4517;49.020;12.066;2022-12-07T15:46:05;18.47;;;12.40;;
8964;SDS011;4517;49.020;12.066;2022-12-07T15:48:31;12.70;;;11.33;;
8964;SDS011;4517;49.020;12.066;2022-12-07T15:51:03;11.37;;;10.20;;
8964;SDS011;4517;49.020;12.066;2022-12-07T15:53:30;16.97;;;11.30;;
8964;SDS011;4517;49.020;12.066;2022-12-07T15:55:56;21.20;;;12.70;;
8964;SDS011;4517;49.020;12.066;2022-12-07T15:58:21;13.93;;;10.67;;
8964;SDS011;4517;49.020;12.066;2022-12-07T16:00:47;12.17;;;10.90;;
8964;SDS011;4517;49.020;12.066;2022-12-07T16:03:13;12.00;;;10.80;;
8964;SDS011;4517;49.020;12.066;2022-12-07T16:05:39;11.87;;;10.67;;
8964;SDS011;4517;49.020;12.066;2022-12-07T16:08:04;13.37;;;11.23;;
8964;SDS011;4517;49.020;12.066;2022-12-07T16:10:30;12.50;;;10.53;;
8964;SDS011;4517;49.020;12.066;2022-12-07T16:12:56;20.43;;;12.40;;
8964;SDS011;4517;49.020;12.066;2022-12-07T16:15:21;13.67;;;10.47;;
8964;SDS011;4517;49.020;12.066;2022-12-07T16:17:49;14.03;;;11.50;;
8964;SDS011;4517;49.020;12.066;2022-12-07T16:20:15;12.60;;;11.30;;
8964;SDS011;4517;49.020;12.066;2022-12-07T16:22:40;13.20;;;11.17;;
8964;SDS011;4517;49.020;12.066;2022-12-07T16:25:06;15.70;;;11.40;;
8964;SDS011;4517;49.020;12.066;2022-12-07T16:27:31;12.87;;;11.67;;
8964;SDS011;4517;49.020;12.066;2022-12-07T16:29:57;13.53;;;12.10;;
8964;SDS011;4517;49.020;12.066;2022-12-07T16:32:23;28.60;;;13.57;;
8964;SDS011;4517;49.020;12.066;2022-12-07T16:34:48;12.87;;;11.53;;
8964;SDS011;4517;49.020;12.066;2022-12-07T16:37:14;14.67;;;11.97;;
8964;SDS011;4517;49.020;12.066;2022-12-07T16:39:39;14.37;;;11.30;;
8964;SDS011;4517;49.020;12.066;2022-12-07T16:42:05;22.50;;;13.47;;
8964;SDS011;4517;49.020;12.066;2022-12-07T16:44:30;14.07;;;11.97;;
8964;SDS011;4517;49.020;12.066;2022-12-07T16:46:56;12.63;;;11.33;;
8964;SDS011;4517;49.020;12.066;2022-12-07T16:49:22;16.63;;;13.23;;
8964;SDS011;4517;49.020;12.066;2022-12-07T16:51:49;17.13;;;11.77;;
8964;SDS011;4517;49.020;12.066;2022-12-07T16:54:15;18.03;;;13.30;;
8964;SDS011;4517;49.020;12.066;2022-12-07T16:56:41;17.53;;;12.57;;
8964;SDS011;4517;49.020;12.066;2022-12-07T16:59:07;13.83;;;11.23;;
8964;SDS011;4517;49.020;12.066;2022-12-07T17:01:33;13.80;;;11.67;;
8964;SDS011;4517;49.020;12.066;2022-12-07T17:03:59;17.37;;;12.43;;
8964;SDS011;4517;49.020;12.066;2022-12-07T17:06:25;12.47;;;11.17;;